Terminal Aerodrome Forecast
Issued by NWS Billings, MT

Home | Current Version | Previous Version | Graphics & Text | Print | Product List | Glossary On
Versions: 1 2 3 4 5 6 7 8 9 10 11 12 13 14 15 16 17 18 19 20 21 22 23 24 25 26 27 28 29 30 31
000
FTUS45 KBYZ 310303 AAC
TAFMLS
TAF AMD
KMLS 310303Z 3103/3124 VRB06KT P6SM VCTS SCT100CB BKN200
      TEMPO 3103/3104 VRB10G20KT 6SM -TSRA BKN090CB
     FM310500 22015G25KT P6SM VCSH BKN080
     FM310800 32025G35KT P6SM SCT100
     FM311200 28012KT P6SM FEW100
     FM311800 24009KT P6SM FEW100=

USA.gov is the U.S. government's official web portal to all federal, state and local government web resources and services.